createdAt,value
2018-04-07T00:00:27.745Z,9.10
2018-04-07T00:02:55.201Z,7.33
2018-04-07T00:05:22.655Z,10.27
2018-04-07T00:07:50.103Z,7.57
2018-04-07T00:10:17.572Z,8.27
2018-04-07T00:12:45.023Z,8.47
2018-04-07T00:15:12.472Z,5.90
2018-04-07T00:17:39.931Z,6.93
2018-04-07T00:20:07.402Z,7.93
2018-04-07T00:22:34.855Z,7.00
2018-04-07T00:25:02.318Z,11.10
2018-04-07T00:27:29.773Z,9.30
2018-04-07T00:29:57.227Z,8.27
2018-04-07T00:32:24.673Z,10.33
2018-04-07T00:34:52.142Z,7.17
2018-04-07T00:37:19.591Z,9.80
2018-04-07T00:39:47.057Z,9.90
2018-04-07T00:42:14.514Z,6.80
2018-04-07T00:44:41.971Z,10.87
2018-04-07T00:47:09.426Z,7.80
2018-04-07T00:49:37.449Z,8.87
2018-04-07T00:52:04.909Z,6.40
2018-04-07T00:54:32.362Z,6.57
2018-04-07T00:56:59.826Z,10.23
2018-04-07T00:59:27.291Z,8.30
2018-04-07T01:01:54.739Z,9.50
2018-04-07T01:04:22.195Z,5.97
2018-04-07T01:06:49.657Z,7.83
2018-04-07T01:09:17.114Z,8.43
2018-04-07T01:11:44.568Z,14.13
2018-04-07T01:14:12.022Z,9.40
2018-04-07T01:16:39.490Z,6.40
2018-04-07T01:19:06.939Z,9.27
2018-04-07T01:21:34.394Z,6.70
2018-04-07T01:24:01.863Z,7.90
2018-04-07T01:26:29.332Z,8.17
2018-04-07T01:28:56.790Z,10.47
2018-04-07T01:31:24.238Z,12.60
2018-04-07T01:33:51.704Z,9.87
2018-04-07T01:36:19.155Z,9.00
2018-04-07T01:38:46.606Z,14.37
2018-04-07T01:41:14.064Z,12.87
2018-04-07T01:43:41.536Z,13.70
2018-04-07T01:46:08.981Z,7.67
2018-04-07T01:48:36.456Z,11.40
2018-04-07T01:51:03.898Z,8.60
2018-04-07T01:53:31.350Z,9.20
2018-04-07T01:55:58.815Z,7.87
2018-04-07T01:58:26.278Z,6.03
2018-04-07T02:00:53.731Z,8.47
2018-04-07T02:03:21.205Z,9.40
2018-04-07T02:05:48.670Z,12.27
2018-04-07T02:08:16.127Z,10.80
2018-04-07T02:10:43.576Z,8.57
2018-04-07T02:13:11.039Z,8.10
2018-04-07T02:15:38.500Z,7.50
2018-04-07T02:18:05.946Z,10.17
2018-04-07T02:20:33.416Z,10.53
2018-04-07T02:23:00.877Z,10.17
2018-04-07T02:25:28.330Z,12.27
2018-04-07T02:27:55.789Z,8.20
2018-04-07T02:30:23.247Z,8.53
2018-04-07T02:32:50.700Z,12.03
2018-04-07T02:35:18.166Z,11.17
2018-04-07T02:37:46.533Z,12.20
2018-04-07T02:40:13.996Z,7.97
2018-04-07T02:42:41.452Z,9.93
2018-04-07T02:45:08.910Z,8.70
2018-04-07T02:47:36.370Z,7.80
2018-04-07T02:50:03.858Z,8.70
2018-04-07T02:52:31.310Z,7.40
2018-04-07T02:54:58.767Z,9.70
2018-04-07T02:57:26.218Z,13.50
2018-04-07T02:59:53.699Z,9.60
2018-04-07T03:02:21.913Z,7.67
2018-04-07T03:04:49.386Z,8.97
2018-04-07T03:07:16.850Z,9.13
2018-04-07T03:09:44.298Z,9.33
2018-04-07T03:12:11.758Z,10.47
2018-04-07T03:14:39.220Z,15.83
2018-04-07T03:17:06.679Z,11.40
2018-04-07T03:19:34.142Z,7.67
2018-04-07T03:22:01.590Z,8.40
2018-04-07T03:24:29.054Z,7.23
2018-04-07T03:26:56.511Z,9.87
2018-04-07T03:29:23.955Z,11.63
2018-04-07T03:31:52.181Z,7.60
2018-04-07T03:34:20.406Z,9.33
2018-04-07T03:36:47.870Z,7.83
2018-04-07T03:39:15.323Z,8.47
2018-04-07T03:41:42.782Z,7.07
2018-04-07T03:44:10.255Z,9.80
2018-04-07T03:46:37.708Z,11.37
2018-04-07T03:49:05.162Z,9.97
2018-04-07T03:51:32.633Z,10.83
2018-04-07T03:54:00.091Z,9.40
2018-04-07T03:56:27.540Z,7.47
2018-04-07T03:58:54.996Z,9.83
2018-04-07T04:01:22.447Z,10.20
2018-04-07T04:03:49.904Z,9.80
2018-04-07T04:06:17.359Z,13.37
2018-04-07T04:08:44.827Z,10.37
2018-04-07T04:11:12.279Z,7.60
2018-04-07T04:13:39.743Z,8.13
2018-04-07T04:16:07.190Z,9.97
2018-04-07T04:18:34.655Z,9.00
2018-04-07T04:21:02.103Z,7.97
2018-04-07T04:23:29.574Z,12.17
2018-04-07T04:25:57.022Z,10.53
2018-04-07T04:28:24.491Z,8.13
2018-04-07T04:30:51.943Z,7.93
2018-04-07T04:33:19.383Z,9.50
2018-04-07T04:35:46.839Z,7.70
2018-04-07T04:38:15.058Z,9.57
2018-04-07T04:40:42.518Z,12.97
2018-04-07T04:43:09.976Z,11.43
2018-04-07T04:45:37.436Z,8.50
2018-04-07T04:48:04.886Z,11.53
2018-04-07T04:50:32.352Z,10.37
2018-04-07T04:52:59.798Z,8.30
2018-04-07T04:55:27.274Z,10.60
2018-04-07T04:57:54.714Z,9.07
2018-04-07T05:00:22.191Z,10.10
2018-04-07T05:02:49.646Z,10.37
2018-04-07T05:05:17.110Z,10.23
2018-04-07T05:07:44.570Z,9.20
2018-04-07T05:10:12.059Z,12.87
2018-04-07T05:12:39.500Z,9.23
2018-04-07T05:15:06.981Z,12.20
2018-04-07T05:17:34.434Z,11.10
2018-04-07T05:20:01.886Z,9.57
2018-04-07T05:22:29.346Z,10.67
2018-04-07T05:24:56.803Z,8.43
2018-04-07T05:27:24.266Z,14.87
2018-04-07T05:29:51.714Z,10.20
2018-04-07T05:32:19.171Z,12.57
2018-04-07T05:34:46.631Z,12.33
2018-04-07T05:37:14.087Z,10.13
2018-04-07T05:39:41.545Z,12.50
2018-04-07T05:42:09.009Z,11.50
2018-04-07T05:44:36.460Z,20.60
2018-04-07T05:47:03.925Z,13.10
2018-04-07T05:49:31.379Z,10.73
2018-04-07T05:51:58.835Z,11.37
2018-04-07T05:54:26.288Z,10.20
2018-04-07T05:56:53.732Z,15.57
2018-04-07T05:59:21.201Z,15.73
2018-04-07T06:01:48.659Z,12.27
2018-04-07T06:04:16.115Z,10.30
2018-04-07T06:06:43.565Z,14.53
2018-04-07T06:09:11.027Z,12.90
2018-04-07T06:11:38.482Z,11.97
2018-04-07T06:14:05.938Z,11.27
2018-04-07T06:16:33.399Z,10.93
2018-04-07T06:19:00.853Z,8.77
2018-04-07T06:21:28.312Z,10.80
2018-04-07T06:23:55.767Z,13.30
2018-04-07T06:26:23.222Z,10.57
2018-04-07T06:28:50.821Z,8.73
2018-04-07T06:31:18.266Z,12.13
2018-04-07T06:33:45.748Z,11.67
2018-04-07T06:36:13.207Z,9.77
2018-04-07T06:38:40.667Z,12.17
2018-04-07T06:41:08.118Z,10.73
2018-04-07T06:43:35.682Z,9.83
2018-04-07T06:46:03.223Z,10.37
2018-04-07T06:48:30.723Z,12.87
2018-04-07T06:50:58.374Z,10.20
2018-04-07T06:53:25.818Z,10.97
2018-04-07T06:55:53.282Z,12.13
2018-04-07T06:58:20.734Z,11.97
2018-04-07T07:00:48.193Z,10.83
2018-04-07T07:03:15.642Z,12.27
2018-04-07T07:05:43.098Z,10.93
2018-04-07T07:08:10.546Z,15.50
2018-04-07T07:10:38.161Z,12.43
2018-04-07T07:13:05.622Z,9.23
2018-04-07T07:15:33.087Z,13.17
2018-04-07T07:18:00.543Z,13.53
2018-04-07T07:20:28.010Z,10.57
2018-04-07T07:22:55.463Z,11.70
2018-04-07T07:25:23.679Z,9.83
2018-04-07T07:27:51.143Z,11.47
2018-04-07T07:30:18.602Z,11.77
2018-04-07T07:32:46.068Z,14.97
2018-04-07T07:35:13.522Z,14.03
2018-04-07T07:37:40.986Z,9.90
2018-04-07T07:40:08.446Z,9.33
2018-04-07T07:42:35.906Z,10.93
2018-04-07T07:45:03.362Z,11.07
2018-04-07T07:47:30.828Z,12.93
2018-04-07T07:49:58.282Z,9.87
2018-04-07T07:52:25.738Z,10.10
2018-04-07T07:54:53.183Z,9.40
2018-04-07T07:57:20.646Z,9.10
2018-04-07T07:59:48.106Z,10.47
2018-04-07T08:02:15.578Z,10.63
2018-04-07T08:04:43.045Z,10.23
2018-04-07T08:07:10.531Z,10.30
2018-04-07T08:09:37.987Z,10.37
2018-04-07T08:12:05.430Z,12.27
2018-04-07T08:14:32.896Z,11.70
2018-04-07T08:17:00.355Z,10.60
2018-04-07T08:19:27.816Z,9.93
2018-04-07T08:21:55.267Z,10.23
2018-04-07T08:24:22.743Z,13.27
2018-04-07T08:26:50.210Z,11.07
2018-04-07T08:29:17.683Z,9.63
2018-04-07T08:31:45.133Z,10.47
2018-04-07T08:34:12.602Z,13.40
2018-04-07T08:36:40.071Z,11.20
2018-04-07T08:39:07.549Z,11.00
2018-04-07T08:41:34.996Z,15.93
2018-04-07T08:44:03.255Z,11.87
2018-04-07T08:46:30.708Z,9.50
2018-04-07T08:48:58.165Z,13.57
2018-04-07T08:51:25.626Z,13.00
2018-04-07T08:53:53.848Z,10.57
2018-04-07T08:56:21.310Z,11.10
2018-04-07T08:58:48.790Z,10.83
2018-04-07T09:01:16.235Z,9.57
2018-04-07T09:03:43.692Z,12.20
2018-04-07T09:06:11.179Z,10.40
2018-04-07T09:08:38.644Z,10.63
2018-04-07T09:11:06.875Z,11.00
2018-04-07T09:13:34.326Z,12.10
2018-04-07T09:16:01.843Z,10.77
2018-04-07T09:18:29.290Z,11.10
2018-04-07T09:20:56.756Z,13.17
2018-04-07T09:23:24.980Z,12.13
2018-04-07T09:25:52.508Z,11.23
2018-04-07T09:28:19.919Z,11.97
2018-04-07T09:30:47.382Z,12.30
2018-04-07T09:33:14.835Z,11.77
2018-04-07T09:35:42.398Z,11.03
2018-04-07T09:38:09.860Z,10.53
2018-04-07T09:40:37.330Z,17.30
2018-04-07T09:43:05.574Z,14.13
2018-04-07T09:45:33.036Z,10.00
2018-04-07T09:48:00.498Z,10.77
2018-04-07T09:50:27.950Z,9.30
2018-04-07T09:52:55.457Z,11.63
2018-04-07T09:55:22.911Z,10.37
2018-04-07T09:57:50.374Z,12.97
2018-04-07T10:00:17.835Z,8.97
2018-04-07T10:02:45.342Z,13.27
2018-04-07T10:05:12.815Z,10.70
2018-04-07T10:07:40.279Z,10.03
2018-04-07T10:10:07.731Z,8.70
2018-04-07T10:12:35.958Z,7.93
2018-04-07T10:15:03.439Z,9.30
2018-04-07T10:17:30.899Z,9.53
2018-04-07T10:19:58.358Z,13.70
2018-04-07T10:22:25.912Z,10.07
2018-04-07T10:24:53.370Z,14.47
2018-04-07T10:27:21.660Z,10.17
2018-04-07T10:29:49.882Z,9.10
2018-04-07T10:32:17.340Z,12.70
2018-04-07T10:34:44.803Z,11.00
2018-04-07T10:37:12.259Z,11.73
2018-04-07T10:39:39.728Z,12.23
2018-04-07T10:42:07.184Z,13.93
2018-04-07T10:44:34.665Z,12.33
2018-04-07T10:47:02.907Z,12.40
2018-04-07T10:49:30.366Z,10.73
2018-04-07T10:51:57.827Z,11.17
2018-04-07T10:54:25.290Z,13.87
2018-04-07T10:56:52.746Z,11.90
2018-04-07T10:59:20.210Z,14.97
2018-04-07T11:01:47.686Z,16.73
2018-04-07T11:04:15.150Z,11.33
2018-04-07T11:06:43.372Z,12.43
2018-04-07T11:09:10.845Z,11.63
2018-04-07T11:11:38.294Z,13.10
2018-04-07T11:14:05.774Z,12.40
2018-04-07T11:16:33.236Z,10.40
2018-04-07T11:19:00.694Z,14.67
2018-04-07T11:21:28.142Z,13.50
2018-04-07T11:23:55.602Z,10.87
2018-04-07T11:26:23.084Z,13.63
2018-04-07T11:28:50.542Z,10.20
2018-04-07T11:31:18.019Z,11.13
2018-04-07T11:33:45.486Z,10.00
2018-04-07T11:36:12.951Z,13.73
2018-04-07T11:38:40.431Z,11.20
2018-04-07T11:41:07.886Z,11.00
2018-04-07T11:43:35.342Z,10.57
2018-04-07T11:46:02.806Z,11.30
2018-04-07T11:48:30.271Z,12.23
2018-04-07T11:50:57.736Z,11.73
2018-04-07T11:53:25.197Z,11.77
2018-04-07T11:55:52.663Z,15.57
2018-04-07T11:58:20.882Z,11.13
2018-04-07T12:00:48.354Z,13.13
2018-04-07T12:03:15.844Z,13.97
2018-04-07T12:05:43.296Z,12.33
2018-04-07T12:08:10.769Z,10.70
2018-04-07T12:10:38.225Z,11.57
2018-04-07T12:13:05.721Z,12.83
2018-04-07T12:15:33.220Z,11.90
2018-04-07T12:18:00.653Z,11.63
2018-04-07T12:20:28.138Z,12.03
2018-04-07T12:22:55.597Z,11.40
2018-04-07T12:25:23.049Z,14.60
2018-04-07T12:27:50.510Z,15.33
2018-04-07T12:30:17.968Z,11.27
2018-04-07T12:32:45.465Z,14.30
2018-04-07T12:35:12.907Z,9.83
2018-04-07T12:37:40.383Z,14.17
2018-04-07T12:40:07.888Z,12.60
2018-04-07T12:42:35.334Z,12.77
2018-04-07T12:45:02.802Z,11.80
2018-04-07T12:47:30.255Z,12.50
2018-04-07T12:49:57.719Z,14.17
2018-04-07T12:52:25.182Z,11.73
2018-04-07T12:54:53.422Z,10.70
2018-04-07T12:57:20.891Z,11.63
2018-04-07T12:59:48.346Z,12.27
2018-04-07T13:02:17.317Z,11.70
2018-04-07T13:04:44.798Z,12.50
2018-04-07T13:07:12.247Z,12.37
2018-04-07T13:09:39.714Z,10.10
2018-04-07T13:12:07.174Z,15.03
2018-04-07T13:14:34.642Z,10.17
2018-04-07T13:17:02.152Z,13.00
2018-04-07T13:19:29.563Z,12.47
2018-04-07T13:21:57.799Z,17.80
2018-04-07T13:24:25.266Z,18.70
2018-04-07T13:26:52.730Z,14.70
2018-04-07T13:29:20.192Z,10.20
2018-04-07T13:31:47.679Z,14.03
2018-04-07T13:34:15.137Z,19.20
2018-04-07T13:36:43.379Z,10.17
2018-04-07T13:39:10.827Z,10.80
2018-04-07T13:41:38.290Z,12.93
2018-04-07T13:44:05.750Z,11.97
2018-04-07T13:46:33.214Z,8.20
2018-04-07T13:49:00.670Z,11.50
2018-04-07T13:51:28.150Z,10.13
2018-04-07T13:53:56.372Z,9.07
2018-04-07T13:56:23.879Z,7.80
2018-04-07T13:58:51.372Z,8.80
2018-04-07T14:01:18.794Z,9.50
2018-04-07T14:03:46.255Z,8.00
2018-04-07T14:06:13.711Z,16.03
2018-04-07T14:08:41.166Z,9.27
2018-04-07T14:11:08.615Z,8.90
2018-04-07T14:13:36.066Z,7.33
2018-04-07T14:16:03.522Z,8.13
2018-04-07T14:18:30.982Z,12.13
2018-04-07T14:20:58.463Z,10.03
2018-04-07T14:23:26.350Z,8.97
2018-04-07T14:25:53.806Z,9.57
2018-04-07T14:28:21.258Z,7.07
2018-04-07T14:30:48.717Z,8.27
2018-04-07T14:33:16.166Z,8.50
2018-04-07T14:35:43.626Z,9.20
2018-04-07T14:38:11.096Z,11.37
2018-04-07T14:40:38.550Z,7.07
2018-04-07T14:43:06.006Z,10.40
2018-04-07T14:45:33.689Z,9.70
2018-04-07T14:48:01.144Z,8.10
2018-04-07T14:50:28.631Z,7.30
2018-04-07T14:52:56.862Z,7.97
2018-04-07T14:55:24.323Z,8.37
2018-04-07T14:57:51.786Z,7.50
2018-04-07T15:00:20.332Z,7.93
2018-04-07T15:02:47.890Z,8.77
2018-04-07T15:05:15.366Z,10.77
2018-04-07T15:07:42.874Z,10.83
2018-04-07T15:10:10.337Z,7.60
2018-04-07T15:12:37.856Z,8.50
2018-04-07T15:15:05.342Z,8.30
2018-04-07T15:17:32.832Z,8.97
2018-04-07T15:20:00.335Z,9.70
2018-04-07T15:22:27.829Z,12.00
2018-04-07T15:24:56.115Z,8.50
2018-04-07T15:27:23.607Z,7.90
2018-04-07T15:29:51.097Z,9.97
2018-04-07T15:32:18.560Z,8.40
2018-04-07T15:34:46.038Z,5.97
2018-04-07T15:37:13.550Z,6.10
2018-04-07T15:39:41.080Z,8.97
2018-04-07T15:42:08.556Z,10.60
2018-04-07T15:44:36.068Z,10.93
2018-04-07T15:47:04.324Z,8.27
2018-04-07T15:49:31.842Z,6.97
2018-04-07T15:51:59.366Z,8.00
2018-04-07T15:54:27.611Z,8.57
2018-04-07T15:56:55.112Z,9.33
2018-04-07T15:59:23.473Z,7.47
2018-04-07T16:01:50.962Z,6.17
2018-04-07T16:04:18.447Z,7.13
2018-04-07T16:06:45.922Z,8.10
2018-04-07T16:09:13.398Z,8.27
2018-04-07T16:11:41.686Z,10.53
2018-04-07T16:14:09.189Z,10.53
2018-04-07T16:16:36.707Z,9.63
2018-04-07T16:19:04.952Z,7.23
2018-04-07T16:21:32.427Z,6.20
2018-04-07T16:23:59.922Z,6.57
2018-04-07T16:26:27.419Z,5.00
2018-04-07T16:28:54.905Z,6.30
2018-04-07T16:31:23.161Z,5.77
2018-04-07T16:33:50.656Z,5.97
2018-04-07T16:36:18.152Z,9.07
2018-04-07T16:38:45.624Z,6.17
2018-04-07T16:41:13.118Z,5.20
2018-04-07T16:43:40.629Z,8.67
2018-04-07T16:46:08.103Z,5.03
2018-04-07T16:48:35.582Z,7.33
2018-04-07T16:51:03.107Z,7.80
2018-04-07T16:53:30.706Z,7.03
2018-04-07T16:55:58.239Z,4.60
2018-04-07T16:58:25.806Z,8.47
2018-04-07T17:00:53.318Z,7.17
2018-04-07T17:03:20.816Z,4.27
2018-04-07T17:05:48.287Z,6.23
2018-04-07T17:08:15.798Z,5.97
2018-04-07T17:10:43.295Z,9.37
2018-04-07T17:13:10.832Z,5.23
2018-04-07T17:15:38.328Z,5.20
2018-04-07T17:18:05.875Z,3.90
2018-04-07T17:20:34.193Z,4.97
2018-04-07T17:23:01.655Z,7.37
2018-04-07T17:25:29.153Z,6.73
2018-04-07T17:27:56.642Z,5.83
2018-04-07T17:30:24.132Z,5.73
2018-04-07T17:32:51.629Z,11.47
2018-04-07T17:35:19.187Z,5.73
2018-04-07T17:37:46.692Z,8.10
2018-04-07T17:40:14.203Z,7.67
2018-04-07T17:42:42.658Z,23.00
2018-04-07T17:45:10.205Z,6.60
2018-04-07T17:47:37.764Z,7.23
2018-04-07T17:50:05.249Z,5.73
2018-04-07T17:52:32.774Z,7.10
2018-04-07T17:55:00.283Z,11.50
2018-04-07T17:57:27.791Z,6.90
2018-04-07T17:59:55.325Z,9.40
2018-04-07T18:02:22.837Z,10.93
2018-04-07T18:04:51.249Z,8.50
2018-04-07T18:07:19.578Z,10.43
2018-04-07T18:09:47.073Z,7.03
2018-04-07T18:12:15.374Z,8.03
2018-04-07T18:14:42.846Z,9.13
2018-04-07T18:17:10.347Z,9.80
2018-04-07T18:19:37.824Z,7.07
2018-04-07T18:22:05.328Z,8.17
2018-04-07T18:24:32.861Z,5.33
2018-04-07T18:27:00.345Z,7.90
2018-04-07T18:29:27.862Z,10.37
2018-04-07T18:31:55.356Z,7.43
2018-04-07T18:34:22.869Z,9.80
2018-04-07T18:36:50.372Z,10.83
2018-04-07T18:39:17.891Z,8.43
2018-04-07T18:41:45.461Z,9.47
2018-04-07T18:44:12.922Z,7.63
2018-04-07T18:46:40.418Z,7.77
2018-04-07T18:49:07.929Z,7.60
2018-04-07T18:51:36.214Z,9.13
2018-04-07T18:54:03.932Z,8.37
2018-04-07T18:56:31.470Z,9.70
2018-04-07T18:58:59.100Z,8.33
2018-04-07T19:01:26.693Z,13.77
2018-04-07T19:03:54.387Z,14.33
2018-04-07T19:06:21.939Z,17.23
2018-04-07T19:08:49.474Z,9.77
2018-04-07T19:11:17.077Z,11.13
2018-04-07T19:13:44.690Z,7.67
2018-04-07T19:16:12.266Z,11.40
2018-04-07T19:18:39.821Z,8.10
2018-04-07T19:21:07.397Z,10.73
2018-04-07T19:23:34.963Z,8.43
2018-04-07T19:26:02.568Z,12.77
2018-04-07T19:28:30.139Z,12.77
2018-04-07T19:30:57.800Z,11.20
2018-04-07T19:33:25.369Z,10.60
2018-04-07T19:35:52.998Z,11.57
2018-04-07T19:38:21.339Z,8.40
2018-04-07T19:40:48.970Z,11.37
2018-04-07T19:43:16.531Z,8.67
2018-04-07T19:45:44.791Z,14.03
2018-04-07T19:48:12.333Z,16.50
2018-04-07T19:50:39.931Z,19.07
2018-04-07T19:53:07.517Z,11.70
2018-04-07T19:55:35.145Z,11.30
2018-04-07T19:58:02.768Z,14.10
2018-04-07T20:00:31.160Z,9.63
2018-04-07T20:02:58.793Z,16.60
2018-04-07T20:05:26.361Z,14.73
2018-04-07T20:07:53.967Z,12.33
2018-04-07T20:10:21.543Z,19.20
2018-04-07T20:12:49.212Z,12.20
2018-04-07T20:15:16.750Z,15.00
2018-04-07T20:17:44.326Z,13.93
2018-04-07T20:20:11.904Z,24.77
2018-04-07T20:22:39.482Z,14.40
2018-04-07T20:25:07.839Z,15.10
2018-04-07T20:27:35.389Z,16.43
2018-04-07T20:30:03.015Z,20.30
2018-04-07T20:32:30.546Z,17.47
2018-04-07T20:34:59.044Z,11.73
2018-04-07T20:37:26.632Z,15.90
2018-04-07T20:39:54.220Z,14.10
2018-04-07T20:42:27.728Z,17.40
2018-04-07T20:44:55.259Z,17.83
2018-04-07T20:47:23.088Z,13.23
2018-04-07T20:49:50.754Z,20.03
2018-04-07T20:52:18.344Z,11.27
2018-04-07T20:54:46.095Z,16.73
2018-04-07T20:57:14.307Z,14.00
2018-04-07T20:59:41.931Z,17.57
2018-04-07T21:02:09.450Z,19.33
2018-04-07T21:04:37.042Z,31.03
2018-04-07T21:07:04.666Z,22.10
2018-04-07T21:09:32.933Z,18.60
2018-04-07T21:12:02.164Z,15.17
2018-04-07T21:14:29.672Z,18.93
2018-04-07T21:16:57.238Z,19.07
2018-04-07T21:19:24.848Z,15.70
2018-04-07T21:21:52.478Z,16.90
2018-04-07T21:24:20.129Z,22.07
2018-04-07T21:26:47.740Z,18.20
2018-04-07T21:29:15.323Z,16.57
2018-04-07T21:31:43.778Z,13.10
2018-04-07T21:34:11.470Z,14.90
2018-04-07T21:36:38.976Z,13.53
2018-04-07T21:39:06.628Z,14.93
2018-04-07T21:41:34.985Z,13.13
2018-04-07T21:44:02.555Z,13.47
2018-04-07T21:46:30.969Z,13.37
2018-04-07T21:48:59.263Z,14.03
2018-04-07T21:51:26.824Z,14.17
2018-04-07T21:53:54.351Z,15.73
2018-04-07T21:56:22.724Z,12.87
2018-04-07T21:58:50.319Z,20.43
2018-04-07T22:01:17.964Z,17.03
2018-04-07T22:03:45.490Z,13.30
2018-04-07T22:06:14.603Z,19.37
2018-04-07T22:08:42.159Z,20.53
2018-04-07T22:11:09.658Z,15.27
2018-04-07T22:13:37.205Z,16.23
2018-04-07T22:16:04.708Z,12.60
2018-04-07T22:18:32.314Z,14.13
2018-04-07T22:20:59.834Z,13.87
2018-04-07T22:23:27.356Z,22.20
2018-04-07T22:25:54.939Z,19.37
2018-04-07T22:28:22.418Z,19.67
2018-04-07T22:30:50.755Z,18.03
2018-04-07T22:33:18.355Z,25.70
2018-04-07T22:35:45.904Z,19.07
2018-04-07T22:38:14.284Z,17.80
2018-04-07T22:40:41.802Z,18.50
2018-04-07T22:43:09.362Z,22.17
2018-04-07T22:45:36.887Z,17.07
2018-04-07T22:48:04.339Z,12.87
2018-04-07T22:50:31.886Z,13.07
2018-04-07T22:52:59.426Z,12.30
2018-04-07T22:55:27.023Z,11.83
2018-04-07T22:57:54.532Z,12.67
2018-04-07T23:00:22.103Z,10.93
2018-04-07T23:02:49.566Z,14.90
2018-04-07T23:05:17.905Z,17.90
2018-04-07T23:07:45.470Z,15.13
2018-04-07T23:10:13.775Z,13.90
2018-04-07T23:12:41.338Z,14.33
2018-04-07T23:15:09.630Z,13.93
2018-04-07T23:17:37.825Z,13.60
2018-04-07T23:20:05.395Z,14.73
2018-04-07T23:22:32.976Z,13.20
2018-04-07T23:25:00.511Z,11.67
2018-04-07T23:27:27.992Z,12.03
2018-04-07T23:29:55.492Z,10.43
2018-04-07T23:32:23.063Z,11.43
2018-04-07T23:34:50.587Z,11.00
2018-04-07T23:37:18.214Z,11.87
2018-04-07T23:39:45.763Z,11.40
2018-04-07T23:42:13.237Z,10.93
2018-04-07T23:44:40.782Z,11.00
2018-04-07T23:47:08.228Z,13.87
2018-04-07T23:49:35.730Z,12.17
2018-04-07T23:52:03.233Z,15.37
2018-04-07T23:54:30.829Z,13.67
2018-04-07T23:56:58.384Z,15.37
2018-04-07T23:59:25.914Z,10.93
